Time;durP1;ratioP1;P1;durP2;ratioP2;P2;SDS_P1;SDS_P2;PMS_P1;PMS_P2;Temp;Humidity;BMP_temperature;BMP_pressure;BME280_temperature;BME280_humidity;BME280_pressure;Samples;Min_cycle;Max_cycle;Signal;HPM_P1;HPM_P2
2022/06/11 00:00:05;;;;;;;8.95;5.07;;;20.30;97.80;;;;;;5094413;28;20025;-77
2022/06/11 00:02:30;;;;;;;9.65;4.80;;;20.20;97.70;;;;;;5094312;28;20027;-77
2022/06/11 00:04:56;;;;;;;9.32;4.75;;;20.10;97.70;;;;;;5094339;28;20028;-77
2022/06/11 00:07:23;;;;;;;10.65;5.75;;;20.00;97.70;;;;;;5094422;28;20032;-77
2022/06/11 00:09:50;;;;;;;7.88;4.07;;;20.00;97.70;;;;;;5094322;28;20028;-77
2022/06/11 00:12:17;;;;;;;8.73;4.40;;;20.00;97.70;;;;;;5094416;28;20138;-77
2022/06/11 00:14:45;;;;;;;10.55;4.75;;;20.00;97.70;;;;;;5094429;28;20023;-77
2022/06/11 00:17:13;;;;;;;5.97;3.80;;;19.90;97.50;;;;;;5094171;28;20028;-77
2022/06/11 00:19:40;;;;;;;6.55;4.10;;;19.90;97.60;;;;;;5094429;28;20028;-77
2022/06/11 00:22:06;;;;;;;5.28;3.35;;;20.00;97.50;;;;;;5094024;28;20391;-77
2022/06/11 00:24:32;;;;;;;7.63;3.67;;;19.90;97.50;;;;;;5094218;28;20054;-77
2022/06/11 00:27:00;;;;;;;9.05;3.05;;;19.90;97.40;;;;;;5093869;28;20537;-77
2022/06/11 00:29:28;;;;;;;6.90;3.00;;;19.90;97.40;;;;;;5093855;28;20463;-77
2022/06/11 00:31:54;;;;;;;5.10;2.88;;;19.80;97.40;;;;;;5094161;28;20024;-77
2022/06/11 00:34:20;;;;;;;5.43;2.40;;;19.80;97.30;;;;;;5093869;28;20057;-77
2022/06/11 00:36:46;;;;;;;5.15;2.63;;;19.80;97.30;;;;;;5093935;28;20434;-77
2022/06/11 00:39:16;;;;;;;5.32;2.80;;;19.80;97.20;;;;;;5093757;28;20020;-77
2022/06/11 00:41:44;;;;;;;4.25;2.35;;;19.70;97.20;;;;;;5093971;28;20032;-77
2022/06/11 00:44:11;;;;;;;4.55;2.42;;;19.70;97.30;;;;;;5093104;28;20044;-77
2022/06/11 00:46:52;;;;;;;6.07;2.70;;;19.70;97.30;;;;;;5093442;28;20028;-76
2022/06/11 00:49:22;;;;;;;9.07;2.88;;;19.70;97.20;;;;;;5093954;28;20345;-77
2022/06/11 00:51:51;;;;;;;5.32;2.58;;;19.70;97.20;;;;;;5093585;28;20027;-77
2022/06/11 00:54:22;;;;;;;5.03;2.72;;;19.70;97.30;;;;;;5093721;28;20024;-76
2022/06/11 00:56:53;;;;;;;6.25;3.10;;;19.70;97.30;;;;;;5093966;28;20369;-77
2022/06/11 00:59:25;;;;;;;6.43;3.17;;;19.70;97.40;;;;;;5093482;28;20456;-77
2022/06/11 01:01:51;;;;;;;;;;;19.60;97.40;;;;;;5093729;28;20056;-77
2022/06/11 01:04:44;;;;;;;6.45;3.97;;;19.60;97.60;;;;;;5093406;28;19949;-77
2022/06/11 01:07:21;;;;;;;7.78;4.03;;;19.60;97.60;;;;;;5093352;28;20479;-77
2022/06/11 01:10:17;;;;;;;6.82;4.25;;;19.50;97.70;;;;;;5093589;28;20028;-77
2022/06/11 01:13:19;;;;;;;7.60;4.15;;;19.50;97.90;;;;;;5093132;28;20024;-77
2022/06/11 01:15:56;;;;;;;7.28;4.00;;;19.50;97.90;;;;;;5093943;28;20074;-77
2022/06/11 01:18:49;;;;;;;6.20;3.38;;;19.40;97.90;;;;;;5093343;28;20536;-77
2022/06/11 01:21:20;;;;;;;;;;;19.40;98.00;;;;;;5093392;28;20028;-77
2022/06/11 01:23:51;;;;;;;4.68;3.55;;;19.40;98.10;;;;;;5093238;28;19904;-77
2022/06/11 01:26:37;;;;;;;6.97;3.58;;;19.30;98.00;;;;;;5093383;28;20078;-77
2022/06/11 01:29:11;;;;;;;5.47;3.72;;;19.30;98.00;;;;;;5093291;28;20038;-77
2022/06/11 01:31:57;;;;;;;6.65;3.47;;;19.20;98.00;;;;;;5092891;28;20031;-77
2022/06/11 01:34:38;;;;;;;9.32;4.00;;;19.30;98.10;;;;;;5093440;28;20103;-77
2022/06/11 01:37:12;;;;;;;8.68;3.75;;;19.30;98.10;;;;;;5093243;28;20047;-77
2022/06/11 01:39:43;;;;;;;7.45;3.33;;;19.20;98.10;;;;;;5093100;28;20132;-77
2022/06/11 01:42:24;;;;;;;5.60;3.50;;;19.20;98.10;;;;;;5093028;28;20035;-77
2022/06/11 01:45:24;;;;;;;6.13;3.45;;;19.10;98.10;;;;;;5093151;28;20082;-77
2022/06/11 01:47:51;;;;;;;5.35;4.30;;;19.10;98.10;;;;;;5093059;28;20074;-77
2022/06/11 01:50:19;;;;;;;6.15;3.80;;;19.10;98.20;;;;;;5092863;28;20419;-77
2022/06/11 01:52:59;;;;;;;7.28;3.38;;;19.10;98.20;;;;;;5092969;28;20028;-77
2022/06/11 01:55:46;;;;;;;5.10;3.45;;;19.20;98.20;;;;;;5092837;28;20034;-77
2022/06/11 01:58:40;;;;;;;5.35;3.20;;;19.10;98.20;;;;;;5097102;28;20020;-77
2022/06/11 02:01:15;;;;;;;5.60;3.45;;;19.10;98.20;;;;;;5096770;28;20498;-77
2022/06/11 02:04:10;;;;;;;5.13;3.35;;;19.10;98.20;;;;;;5096881;28;20019;-77
2022/06/11 02:06:48;;;;;;;8.02;3.42;;;19.20;98.20;;;;;;5096684;28;20028;-77
2022/06/11 02:09:18;;;;;;;5.50;3.88;;;19.10;98.10;;;;;;5096678;28;20034;-77
2022/06/11 02:12:06;;;;;;;5.63;3.75;;;19.00;98.20;;;;;;5096790;28;20031;-77
2022/06/11 02:14:39;;;;;;;4.80;3.60;;;19.10;98.30;;;;;;5096419;28;20073;-77
2022/06/11 02:17:04;;;;;;;6.00;3.60;;;19.00;98.20;;;;;;5096570;28;20099;-77
2022/06/11 02:19:56;;;;;;;7.18;4.07;;;19.00;98.20;;;;;;5096182;28;20052;-76
2022/06/11 02:22:50;;;;;;;6.00;4.10;;;19.00;98.30;;;;;;5096408;28;20497;-77
2022/06/11 02:25:23;;;;;;;6.03;4.00;;;18.90;98.50;;;;;;5095749;28;20499;-76
2022/06/11 02:27:50;;;;;;;7.38;3.90;;;18.90;98.40;;;;;;5096261;28;20024;-77
2022/06/11 02:30:20;;;;;;;4.60;4.13;;;18.90;98.50;;;;;;5096179;28;20367;-76
2022/06/11 02:32:47;;;;;;;6.03;3.80;;;18.90;98.60;;;;;;5096510;28;20431;-77
2022/06/11 02:35:22;;;;;;;6.90;4.03;;;18.80;98.60;;;;;;5096049;28;20020;-77
2022/06/11 02:37:48;;;;;;;8.30;4.32;;;18.80;98.70;;;;;;5095978;28;20024;-76
2022/06/11 02:40:19;;;;;;;4.90;3.72;;;18.70;98.80;;;;;;5095980;28;20426;-77
2022/06/11 02:42:46;;;;;;;5.40;4.25;;;18.70;98.90;;;;;;5096095;28;20024;-77
2022/06/11 02:45:13;;;;;;;6.38;3.72;;;18.70;98.80;;;;;;5095910;28;20032;-77
2022/06/11 02:47:41;;;;;;;5.15;3.72;;;18.60;98.90;;;;;;5095786;28;20571;-77
2022/06/11 02:50:09;;;;;;;5.97;3.83;;;18.60;99.00;;;;;;5095775;28;20028;-77
2022/06/11 02:52:35;;;;;;;8.70;4.22;;;18.50;99.00;;;;;;5095498;28;20387;-77
2022/06/11 02:55:01;;;;;;;6.95;4.07;;;18.50;99.10;;;;;;5095646;28;20091;-77
2022/06/11 02:57:29;;;;;;;7.55;3.85;;;18.50;99.10;;;;;;5095938;28;20520;-77
2022/06/11 02:59:56;;;;;;;6.07;3.95;;;18.50;99.20;;;;;;5095924;28;20027;-77
2022/06/11 03:02:23;;;;;;;6.68;3.50;;;18.40;99.20;;;;;;5095490;28;20495;-77
2022/06/11 03:04:50;;;;;;;9.63;5.50;;;18.50;99.10;;;;;;5095796;28;20050;-77
2022/06/11 03:07:17;;;;;;;5.63;4.00;;;18.40;99.10;;;;;;5095060;28;20036;-77
2022/06/11 03:09:43;;;;;;;5.68;3.90;;;18.40;99.20;;;;;;5095047;28;20475;-77
2022/06/11 03:12:12;;;;;;;4.72;3.65;;;18.40;99.20;;;;;;5095400;28;20490;-77
2022/06/11 03:14:37;;;;;;;6.60;3.72;;;18.40;99.30;;;;;;5095619;28;20028;-77
2022/06/11 03:17:04;;;;;;;8.95;4.10;;;18.40;99.20;;;;;;5095537;28;20093;-76
2022/06/11 03:19:31;;;;;;;6.63;3.92;;;18.40;99.10;;;;;;5095368;28;20145;-80
2022/06/11 03:21:56;;;;;;;5.78;3.60;;;18.50;99.20;;;;;;5095439;28;20020;-77
2022/06/11 03:24:24;;;;;;;5.40;4.07;;;18.40;99.20;;;;;;5095390;28;20020;-77
2022/06/11 03:26:51;;;;;;;5.75;4.00;;;18.40;99.30;;;;;;5095379;28;20035;-77
2022/06/11 03:29:18;;;;;;;7.93;4.32;;;18.30;99.40;;;;;;5094792;28;20368;-77
2022/06/11 03:31:44;;;;;;;8.98;4.40;;;18.30;99.60;;;;;;5095058;28;20028;-77
2022/06/11 03:34:11;;;;;;;6.82;4.45;;;18.20;99.60;;;;;;5094961;28;20051;-76
2022/06/11 03:36:36;;;;;;;6.80;4.20;;;18.10;99.70;;;;;;5095151;28;20081;-77
2022/06/11 03:39:03;;;;;;;8.30;4.10;;;18.10;99.80;;;;;;5094854;28;20471;-76
2022/06/11 03:41:29;;;;;;;8.40;4.18;;;18.10;99.80;;;;;;5094843;28;20085;-77
2022/06/11 03:43:55;;;;;;;5.60;3.95;;;18.10;99.90;;;;;;5094609;28;20043;-76
2022/06/11 03:46:21;;;;;;;8.38;4.25;;;18.00;99.90;;;;;;5094743;28;20028;-77
2022/06/11 03:48:48;;;;;;;7.60;3.80;;;18.00;99.90;;;;;;5094519;28;20027;-77
2022/06/11 03:51:14;;;;;;;5.25;3.85;;;17.90;99.90;;;;;;5094554;28;20024;-77
2022/06/11 03:53:41;;;;;;;5.53;4.03;;;17.90;99.90;;;;;;5094955;28;20024;-77
2022/06/11 03:56:08;;;;;;;5.90;3.80;;;17.80;99.90;;;;;;5094769;28;20024;-76
2022/06/11 03:58:35;;;;;;;8.15;4.35;;;17.80;99.90;;;;;;5094328;28;20491;-77
2022/06/11 04:01:16;;;;;;;4.38;3.40;;;17.70;99.90;;;;;;5094526;28;20120;-77
2022/06/11 04:03:54;;;;;;;10.13;4.25;;;17.70;99.90;;;;;;5094646;28;20349;-77
2022/06/11 04:06:41;;;;;;;7.70;3.72;;;17.60;99.90;;;;;;5094504;28;20028;-77
2022/06/11 04:09:10;;;;;;;6.43;3.70;;;17.60;99.90;;;;;;5094473;28;20414;-77
2022/06/11 04:11:36;;;;;;;7.32;4.00;;;17.50;99.90;;;;;;5094515;28;20349;-77
2022/06/11 04:14:02;;;;;;;5.85;3.55;;;17.50;99.90;;;;;;5094146;28;20020;-77
2022/06/11 04:16:31;;;;;;;8.38;3.70;;;17.50;99.90;;;;;;5094463;28;20057;-77
2022/06/11 04:19:01;;;;;;;8.75;3.22;;;17.50;99.90;;;;;;5092913;28;20157;-77
2022/06/11 04:21:29;;;;;;;6.93;3.13;;;17.50;99.90;;;;;;5094302;28;20077;-77
2022/06/11 04:23:56;;;;;;;8.45;2.78;;;17.50;99.90;;;;;;5093920;28;20410;-76
2022/06/11 04:26:29;;;;;;;4.00;2.28;;;17.50;99.90;;;;;;5094152;28;20116;-76
2022/06/11 04:28:55;;;;;;;4.53;2.45;;;17.60;99.90;;;;;;5094285;28;20031;-77
2022/06/11 04:31:22;;;;;;;5.65;2.20;;;17.50;99.90;;;;;;5094114;28;20026;-77
2022/06/11 04:33:48;;;;;;;7.13;2.30;;;17.50;99.90;;;;;;5093914;28;20065;-77
2022/06/11 04:36:16;;;;;;;6.93;2.50;;;17.40;99.80;;;;;;5093761;28;20020;-77
2022/06/11 04:38:42;;;;;;;5.97;2.28;;;17.50;99.80;;;;;;5094058;28;20024;-76
2022/06/11 04:41:08;;;;;;;5.75;1.77;;;17.40;99.80;;;;;;5093624;28;20039;-77
2022/06/11 04:43:34;;;;;;;7.82;2.50;;;17.50;99.70;;;;;;5093701;28;20028;-76
2022/06/11 04:46:01;;;;;;;8.85;2.25;;;17.50;99.30;;;;;;5094022;28;20121;-78
2022/06/11 04:48:27;;;;;;;7.40;2.20;;;17.50;99.10;;;;;;5093317;28;20062;-77
2022/06/11 04:50:54;;;;;;;9.77;2.10;;;17.50;99.00;;;;;;5093946;28;20380;-77
2022/06/11 04:53:19;;;;;;;9.80;2.15;;;17.60;98.80;;;;;;5093620;28;20054;-77
2022/06/11 04:55:45;;;;;;;9.00;1.88;;;17.50;98.70;;;;;;5093441;28;20021;-77
2022/06/11 04:58:12;;;;;;;8.50;1.85;;;17.60;98.70;;;;;;5093686;28;20074;-77
2022/06/11 05:00:37;;;;;;;7.97;2.05;;;17.60;98.60;;;;;;5093407;28;20101;-77
2022/06/11 05:03:04;;;;;;;7.65;1.45;;;17.60;98.60;;;;;;5093476;28;20444;-77
2022/06/11 05:05:30;;;;;;;9.50;2.45;;;17.50;98.50;;;;;;5093452;28;20047;-77
2022/06/11 05:07:57;;;;;;;12.05;1.98;;;17.60;98.60;;;;;;5093147;28;20036;-77
2022/06/11 05:10:24;;;;;;;8.40;1.98;;;17.50;98.60;;;;;;5093217;28;20031;-76
2022/06/11 05:12:51;;;;;;;7.28;1.73;;;17.60;98.60;;;;;;5093624;28;20059;-76
2022/06/11 05:15:17;;;;;;;10.23;1.90;;;17.60;98.50;;;;;;5093231;28;20027;-76
2022/06/11 05:17:43;;;;;;;13.63;2.00;;;17.60;98.20;;;;;;5093392;28;20020;-75
2022/06/11 05:20:10;;;;;;;12.30;1.80;;;17.60;98.00;;;;;;5093011;28;20024;-76
2022/06/11 05:22:37;;;;;;;11.25;1.77;;;17.60;97.90;;;;;;5093194;28;20032;-76
2022/06/11 05:25:04;;;;;;;12.73;2.17;;;17.50;97.80;;;;;;5093006;28;20028;-77
2022/06/11 05:27:29;;;;;;;11.13;2.45;;;17.50;97.90;;;;;;5093292;28;20386;-77
2022/06/11 05:30:03;;;;;;;7.97;1.98;;;17.50;97.80;;;;;;5093108;28;20107;-77
2022/06/11 05:32:33;;;;;;;11.15;2.30;;;17.60;97.90;;;;;;5096590;28;20495;-77
2022/06/11 05:35:00;;;;;;;11.05;2.50;;;17.70;97.90;;;;;;5097493;28;20081;-77
2022/06/11 05:37:26;;;;;;;9.75;2.50;;;17.70;97.80;;;;;;5097363;28;20028;-77
2022/06/11 05:39:53;;;;;;;10.85;2.10;;;17.80;97.80;;;;;;5097168;28;20122;-77
2022/06/11 05:42:21;;;;;;;17.20;3.80;;;17.80;97.60;;;;;;5097451;28;20476;-77
2022/06/11 05:44:47;;;;;;;11.90;2.97;;;17.80;97.40;;;;;;5096813;28;20040;-76
2022/06/11 05:47:16;;;;;;;11.35;2.92;;;17.80;97.30;;;;;;5097269;28;20032;-77
2022/06/11 05:49:45;;;;;;;13.00;2.70;;;17.80;97.40;;;;;;5096995;28;20425;-77
2022/06/11 05:52:15;;;;;;;13.55;2.85;;;17.80;97.40;;;;;;5096882;28;20028;-77
2022/06/11 05:54:41;;;;;;;15.20;2.78;;;17.80;97.30;;;;;;5097126;28;20424;-77
2022/06/11 05:57:11;;;;;;;12.77;2.22;;;17.80;97.30;;;;;;5096481;28;20028;-77
2022/06/11 05:59:42;;;;;;;12.40;2.35;;;17.80;97.10;;;;;;5097017;28;20016;-77
2022/06/11 06:02:10;;;;;;;11.57;2.35;;;17.80;97.10;;;;;;5096865;28;20028;-77
2022/06/11 06:04:37;;;;;;;18.92;2.78;;;17.90;97.10;;;;;;5096445;28;20023;-76
2022/06/11 06:07:05;;;;;;;16.20;2.63;;;17.90;97.30;;;;;;5096537;28;20042;-76
2022/06/11 06:09:31;;;;;;;16.33;2.60;;;18.00;97.10;;;;;;5096631;28;20109;-76
2022/06/11 06:11:57;;;;;;;18.05;2.80;;;18.00;97.30;;;;;;5096376;28;20033;-76
2022/06/11 06:14:23;;;;;;;14.60;2.22;;;18.10;97.30;;;;;;5096285;28;20028;-76
2022/06/11 06:16:48;;;;;;;13.40;2.88;;;18.10;97.10;;;;;;5096369;28;20471;-76
2022/06/11 06:19:14;;;;;;;12.25;2.80;;;18.20;97.30;;;;;;5096330;28;20032;-76
2022/06/11 06:21:40;;;;;;;16.23;2.42;;;18.30;97.10;;;;;;5096243;28;20103;-76
2022/06/11 06:24:06;;;;;;;17.05;2.55;;;18.30;96.90;;;;;;5096358;28;20028;-75
2022/06/11 06:26:33;;;;;;;15.95;2.30;;;18.40;96.70;;;;;;5096439;28;20125;-76
2022/06/11 06:28:59;;;;;;;14.15;2.25;;;18.40;96.60;;;;;;5096190;28;20039;-76
2022/06/11 06:31:25;;;;;;;18.27;2.75;;;18.60;96.70;;;;;;5095875;28;20031;-75
2022/06/11 06:33:51;;;;;;;14.13;2.50;;;18.70;96.60;;;;;;5096368;28;20055;-76
2022/06/11 06:36:18;;;;;;;17.35;2.95;;;18.70;96.20;;;;;;5096051;28;20108;-76
2022/06/11 06:38:44;;;;;;;15.85;2.50;;;18.80;96.00;;;;;;5095789;28;20035;-77
2022/06/11 06:41:11;;;;;;;16.90;2.92;;;18.80;95.90;;;;;;5095707;28;20037;-76
2022/06/11 06:43:37;;;;;;;19.08;2.78;;;18.90;96.00;;;;;;5094568;28;20345;-76
2022/06/11 06:46:02;;;;;;;15.75;2.58;;;18.90;95.80;;;;;;5095850;28;20031;-76
2022/06/11 06:48:28;;;;;;;17.92;2.85;;;18.90;95.80;;;;;;5095834;28;20039;-76
2022/06/11 06:50:54;;;;;;;18.17;2.58;;;19.00;95.50;;;;;;5095978;28;20073;-76
2022/06/11 06:53:20;;;;;;;18.70;2.92;;;19.10;95.60;;;;;;5095915;28;20027;-77
2022/06/11 06:55:46;;;;;;;24.05;3.53;;;19.20;95.40;;;;;;5095468;28;20455;-77
2022/06/11 06:58:14;;;;;;;21.45;2.75;;;19.20;94.80;;;;;;5095409;28;20032;-77
2022/06/11 07:00:40;;;;;;;17.65;3.03;;;19.20;94.40;;;;;;5095782;28;20035;-77
2022/06/11 07:03:06;;;;;;;13.25;2.80;;;19.30;94.40;;;;;;5095548;28;20551;-77
2022/06/11 07:05:32;;;;;;;15.18;2.70;;;19.20;94.40;;;;;;5095709;28;20111;-76
2022/06/11 07:07:57;;;;;;;14.80;2.45;;;19.30;94.60;;;;;;5095303;28;20047;-76
2022/06/11 07:10:25;;;;;;;14.13;2.58;;;19.30;94.50;;;;;;5095615;28;20032;-77
2022/06/11 07:12:51;;;;;;;16.48;2.80;;;19.40;94.60;;;;;;5095432;28;20089;-77
2022/06/11 07:15:17;;;;;;;15.50;3.15;;;19.50;94.30;;;;;;5095211;28;20024;-77
2022/06/11 07:18:00;;;;;;;16.75;3.13;;;19.60;94.20;;;;;;5095327;28;20479;-77
2022/06/11 07:20:29;;;;;;;14.05;2.83;;;19.60;93.80;;;;;;5095233;28;20047;-76
2022/06/11 07:23:39;;;;;;;15.73;2.72;;;19.60;93.70;;;;;;5095000;28;20020;-76
2022/06/11 07:26:11;;;;;;;15.35;2.85;;;19.70;93.60;;;;;;5079506;28;20502;-77
2022/06/11 07:28:42;;;;;;;18.33;2.83;;;19.80;93.60;;;;;;5095044;28;20054;-77
2022/06/11 07:31:08;;;;;;;11.73;2.30;;;19.80;93.70;;;;;;5095450;28;20182;-77
2022/06/11 07:33:34;;;;;;;15.20;2.92;;;19.90;93.70;;;;;;5095054;28;20063;-77
2022/06/11 07:36:00;;;;;;;14.20;2.90;;;19.90;93.40;;;;;;5094779;28;20028;-77
2022/06/11 07:38:26;;;;;;;20.73;4.03;;;20.00;93.40;;;;;;5095083;28;20107;-77
2022/06/11 07:40:51;;;;;;;11.27;2.10;;;20.00;93.50;;;;;;5095238;28;20452;-77
2022/06/11 07:43:17;;;;;;;16.35;3.38;;;20.10;93.10;;;;;;5094974;28;20020;-76
2022/06/11 07:45:44;;;;;;;18.80;2.97;;;20.20;92.60;;;;;;5095035;28;20054;-77
2022/06/11 07:48:10;;;;;;;15.07;2.13;;;20.20;92.50;;;;;;5094928;28;20122;-77
2022/06/11 07:50:39;;;;;;;15.98;2.78;;;20.20;92.60;;;;;;5094471;28;20054;-76
2022/06/11 07:53:06;;;;;;;14.30;2.45;;;20.30;92.40;;;;;;5094860;28;20081;-76
2022/06/11 07:55:33;;;;;;;17.48;3.08;;;20.40;92.20;;;;;;5094214;28;20063;-76
2022/06/11 07:57:59;;;;;;;14.13;2.65;;;20.40;92.10;;;;;;5094489;28;20024;-76
2022/06/11 08:00:32;;;;;;;15.70;3.13;;;20.50;91.60;;;;;;5094197;28;20111;-76
2022/06/11 08:02:58;;;;;;;;;;;20.50;91.60;;;;;;5095178;28;20020;-76
2022/06/11 08:05:24;;;;;;;14.07;2.58;;;20.50;91.60;;;;;;5094342;28;20279;-76
2022/06/11 08:07:51;;;;;;;14.90;2.05;;;20.60;91.30;;;;;;5094558;28;20040;-76
2022/06/11 08:10:19;;;;;;;17.52;2.53;;;20.80;91.30;;;;;;5094474;28;20020;-76
2022/06/11 08:12:44;;;;;;;13.27;2.30;;;20.90;91.50;;;;;;5094558;28;20047;-76
2022/06/11 08:15:11;;;;;;;13.93;2.45;;;21.00;90.70;;;;;;5094260;28;20388;-76
2022/06/11 08:17:37;;;;;;;15.82;3.05;;;21.10;90.10;;;;;;5094317;28;20031;-76
2022/06/11 08:20:05;;;;;;;14.18;2.60;;;21.10;89.30;;;;;;5093934;28;20103;-76
2022/06/11 08:22:31;;;;;;;16.27;1.92;;;21.20;90.00;;;;;;5094125;28;20034;-76
2022/06/11 08:24:57;;;;;;;11.55;2.28;;;21.30;89.50;;;;;;5094282;28;20016;-77
2022/06/11 08:27:22;;;;;;;14.52;2.30;;;21.40;89.20;;;;;;5093937;28;20024;-76
2022/06/11 08:29:48;;;;;;;17.85;3.00;;;21.40;88.30;;;;;;5093910;28;20035;-76
2022/06/11 08:32:14;;;;;;;14.70;2.30;;;21.40;86.90;;;;;;5093737;28;20114;-76
2022/06/11 08:34:41;;;;;;;17.70;2.83;;;21.40;86.60;;;;;;5093659;28;20517;-76
2022/06/11 08:37:08;;;;;;;17.23;2.92;;;21.40;86.20;;;;;;5093952;28;20429;-76
2022/06/11 08:39:35;;;;;;;12.68;2.08;;;21.50;86.20;;;;;;5093741;28;20024;-76
2022/06/11 08:42:01;;;;;;;22.90;3.22;;;21.60;86.30;;;;;;5093680;28;20497;-76
2022/06/11 08:44:30;;;;;;;15.93;2.53;;;21.60;85.10;;;;;;5093504;28;20040;-76
2022/06/11 08:47:01;;;;;;;11.88;2.53;;;21.50;85.30;;;;;;5093692;28;20036;-76
2022/06/11 08:50:01;;;;;;;13.80;2.60;;;21.60;85.60;;;;;;5093968;28;20020;-76
2022/06/11 08:52:29;;;;;;;15.40;2.33;;;21.60;83.90;;;;;;5060578;28;20551;-76
2022/06/11 08:54:58;;;;;;;14.50;2.70;;;21.70;83.90;;;;;;5093627;28;20028;-76
2022/06/11 08:57:42;;;;;;;16.02;2.67;;;21.70;82.80;;;;;;5093288;28;20520;-76
2022/06/11 09:00:13;;;;;;;17.25;2.47;;;21.80;82.70;;;;;;5093694;28;20028;-75
2022/06/11 09:03:05;;;;;;;16.15;2.55;;;21.90;83.10;;;;;;5093745;28;20028;-76
2022/06/11 09:05:37;;;;;;;18.50;2.80;;;22.00;83.10;;;;;;5092522;28;20391;-77
2022/06/11 09:08:14;;;;;;;20.88;2.90;;;22.10;83.40;;;;;;5093316;28;20040;-77
2022/06/11 09:10:51;;;;;;;13.18;2.22;;;22.10;82.20;;;;;;5093598;28;20387;-77
2022/06/11 09:13:46;;;;;;;14.85;2.47;;;22.10;82.60;;;;;;5093641;28;20023;-77
2022/06/11 09:16:50;;;;;;;10.05;2.13;;;22.20;80.70;;;;;;5093346;28;20051;-77
2022/06/11 09:19:40;;;;;;;11.60;2.33;;;22.10;79.20;;;;;;5058770;28;20047;-77
2022/06/11 09:22:33;;;;;;;12.07;1.95;;;22.00;77.30;;;;;;5093251;28;20013;-77
2022/06/11 09:25:14;;;;;;;13.32;1.85;;;22.20;76.30;;;;;;5093546;28;20084;-77
2022/06/11 09:27:57;;;;;;;13.88;2.78;;;22.20;73.60;;;;;;5093301;28;20110;-77
2022/06/11 09:30:33;;;;;;;14.55;2.40;;;22.30;74.70;;;;;;5093308;28;20025;-77
2022/06/11 09:33:04;;;;;;;14.85;2.33;;;22.30;74.40;;;;;;5092808;28;20024;-77
2022/06/11 09:35:41;;;;;;;13.80;2.10;;;22.20;75.00;;;;;;5093440;28;20043;-77
2022/06/11 09:38:23;;;;;;;15.20;2.40;;;22.30;75.90;;;;;;5092940;28;20479;-77
2022/06/11 09:41:01;;;;;;;13.27;2.67;;;22.30;75.70;;;;;;5093028;28;20020;-77
2022/06/11 09:43:35;;;;;;;15.38;2.85;;;22.40;77.20;;;;;;5093084;28;20032;-77
2022/06/11 09:46:24;;;;;;;10.98;2.22;;;22.50;78.10;;;;;;5093247;28;20094;-77
2022/06/11 09:48:52;;;;;;;17.08;2.50;;;22.70;76.20;;;;;;5093126;28;20048;-77
2022/06/11 09:51:47;;;;;;;10.00;1.77;;;22.80;75.20;;;;;;5092948;28;20074;-77
2022/06/11 09:54:29;;;;;;;10.13;2.00;;;22.90;73.50;;;;;;5092550;28;20475;-77
2022/06/11 09:57:18;;;;;;;9.43;1.70;;;22.90;73.60;;;;;;5093228;28;20115;-77
2022/06/11 09:59:46;;;;;;;12.90;1.90;;;23.00;74.60;;;;;;5092976;28;20582;-76
2022/06/11 10:02:31;;;;;;;13.23;2.97;;;23.10;74.50;;;;;;5093162;28;20073;-76
2022/06/11 10:05:00;;;;;;;13.73;2.53;;;23.30;73.90;;;;;;5092906;28;20044;-77
2022/06/11 10:07:35;;;;;;;10.68;1.90;;;23.30;74.00;;;;;;5092507;28;20491;-76
2022/06/11 10:10:08;;;;;;;12.80;2.60;;;23.50;74.00;;;;;;5093007;28;20058;-77
2022/06/11 10:12:40;;;;;;;13.07;2.47;;;23.40;73.10;;;;;;5092658;28;20484;-76
2022/06/11 10:15:09;;;;;;;12.68;2.88;;;23.20;72.40;;;;;;5092700;28;20127;-76
2022/06/11 10:17:58;;;;;;;14.98;2.50;;;23.10;73.40;;;;;;5094539;28;20028;-76
2022/06/11 10:20:32;;;;;;;16.17;2.55;;;23.20;73.20;;;;;;5096742;28;20150;-76
2022/06/11 10:23:16;;;;;;;13.75;1.98;;;23.40;72.50;;;;;;5096139;28;20024;-76
2022/06/11 10:26:12;;;;;;;18.42;3.30;;;23.50;71.80;;;;;;5095975;28;20035;-77
2022/06/11 10:28:44;;;;;;;13.32;2.33;;;23.40;72.40;;;;;;5096042;28;20050;-77
2022/06/11 10:31:48;;;;;;;13.52;2.50;;;23.40;72.60;;;;;;5096332;28;20102;-76
2022/06/11 10:34:17;;;;;;;13.43;2.53;;;23.50;72.00;;;;;;5086594;28;20039;-77
2022/06/11 10:37:02;;;;;;;14.05;2.13;;;23.60;72.10;;;;;;5096209;28;20098;-76
2022/06/11 10:39:49;;;;;;;14.18;2.75;;;23.60;72.70;;;;;;5095875;28;20113;-77
2022/06/11 10:42:32;;;;;;;15.43;2.53;;;23.80;72.60;;;;;;5096328;28;20024;-76
2022/06/11 10:45:00;;;;;;;14.30;2.60;;;24.00;71.60;;;;;;5095644;28;20070;-76
2022/06/11 10:47:28;;;;;;;10.80;2.63;;;23.90;71.70;;;;;;5096031;28;20386;-76
2022/06/11 10:50:09;;;;;;;17.90;3.00;;;24.00;70.90;;;;;;5095821;28;20027;-76
2022/06/11 10:52:37;;;;;;;15.02;2.17;;;23.90;70.60;;;;;;5095879;28;20035;-76
2022/06/11 10:55:06;;;;;;;15.75;2.50;;;23.90;70.60;;;;;;5095605;28;20044;-76
2022/06/11 10:57:34;;;;;;;14.90;2.58;;;24.00;70.80;;;;;;5095847;28;20433;-76
2022/06/11 11:00:14;;;;;;;13.32;2.08;;;23.90;70.60;;;;;;5095931;28;20039;-76
2022/06/11 11:02:48;;;;;;;12.52;2.40;;;24.00;72.00;;;;;;5095527;28;20057;-77
2022/06/11 11:05:18;;;;;;;11.63;2.38;;;24.00;71.20;;;;;;5095827;28;20046;-77
2022/06/11 11:08:02;;;;;;;13.90;2.40;;;24.00;70.90;;;;;;5095173;28;20028;-77
2022/06/11 11:10:36;;;;;;;12.88;3.10;;;24.10;72.50;;;;;;5095758;28;20039;-77
2022/06/11 11:13:12;;;;;;;14.65;2.58;;;24.20;69.60;;;;;;5095337;28;20024;-77
2022/06/11 11:15:46;;;;;;;11.05;2.15;;;24.00;68.50;;;;;;5095369;28;20454;-77
2022/06/11 11:18:19;;;;;;;13.40;2.47;;;24.00;70.20;;;;;;5095370;28;20032;-77
2022/06/11 11:20:48;;;;;;;14.40;2.47;;;24.10;69.50;;;;;;5095144;28;20027;-75
2022/06/11 11:23:17;;;;;;;13.07;2.30;;;24.00;68.60;;;;;;5095283;28;20027;-78
2022/06/11 11:25:57;;;;;;;13.13;2.35;;;23.90;69.40;;;;;;5095282;28;20024;-78
2022/06/11 11:28:35;;;;;;;11.82;2.50;;;24.00;69.90;;;;;;5094682;28;20036;-78
2022/06/11 11:31:08;;;;;;;15.40;2.28;;;24.10;70.80;;;;;;5094926;28;20028;-78
2022/06/11 11:33:42;;;;;;;14.25;2.53;;;24.10;69.30;;;;;;5095202;28;20032;-78
2022/06/11 11:36:19;;;;;;;15.35;2.47;;;24.00;69.60;;;;;;5095136;28;20055;-78
2022/06/11 11:38:44;;;;;;;14.95;2.75;;;24.10;70.20;;;;;;5094920;28;20026;-76
2022/06/11 11:41:25;;;;;;;14.77;2.13;;;24.10;70.30;;;;;;5095120;28;20106;-76
2022/06/11 11:43:55;;;;;;;13.82;2.17;;;24.10;69.00;;;;;;5094560;28;20024;-76
2022/06/11 11:46:24;;;;;;;13.30;2.25;;;23.90;69.60;;;;;;5094540;28;20111;-75
2022/06/11 11:48:55;;;;;;;10.90;2.20;;;23.70;70.00;;;;;;5094732;28;20089;-76
2022/06/11 11:51:31;;;;;;;10.40;1.88;;;23.60;70.20;;;;;;5094929;28;20477;-77
2022/06/11 11:54:03;;;;;;;18.02;2.83;;;23.40;70.10;;;;;;5095040;28;20027;-76
2022/06/11 11:56:33;;;;;;;18.73;2.40;;;23.40;71.00;;;;;;5094373;28;20096;-76
2022/06/11 11:59:10;;;;;;;13.07;1.95;;;23.40;70.50;;;;;;5094507;28;20024;-76
2022/06/11 12:01:35;;;;;;;13.13;2.10;;;23.30;71.20;;;;;;5094398;28;20425;-77
2022/06/11 12:04:04;;;;;;;13.23;2.30;;;23.40;72.00;;;;;;5094446;28;20021;-77
2022/06/11 12:06:37;;;;;;;11.00;2.20;;;23.50;71.20;;;;;;5094342;28;20027;-76
2022/06/11 12:09:19;;;;;;;8.82;1.52;;;23.70;71.30;;;;;;5094144;28;20488;-77
2022/06/11 12:11:56;;;;;;;13.02;2.13;;;23.90;70.80;;;;;;5094506;28;20023;-76
2022/06/11 12:14:30;;;;;;;10.60;1.90;;;24.20;69.80;;;;;;5094284;28;20406;-77
2022/06/11 12:16:56;;;;;;;12.55;2.35;;;24.20;69.80;;;;;;5094176;28;20028;-77
2022/06/11 12:19:27;;;;;;;12.48;1.80;;;24.30;69.50;;;;;;5094131;28;20031;-76
2022/06/11 12:22:18;;;;;;;18.65;2.17;;;24.40;70.60;;;;;;5094243;28;20028;-76
2022/06/11 12:24:49;;;;;;;12.63;2.10;;;24.40;70.10;;;;;;5093945;28;20028;-76
2022/06/11 12:27:39;;;;;;;13.85;2.35;;;24.40;70.20;;;;;;5093709;28;20024;-77
2022/06/11 12:30:23;;;;;;;8.85;1.75;;;24.30;69.40;;;;;;5094167;28;20116;-76
2022/06/11 12:32:49;;;;;;;10.05;2.53;;;24.40;69.60;;;;;;5094188;28;20027;-77
2022/06/11 12:35:19;;;;;;;13.63;2.45;;;24.50;69.30;;;;;;5093891;28;20024;-77
2022/06/11 12:37:59;;;;;;;16.35;2.78;;;24.60;69.20;;;;;;5093919;28;20028;-77
2022/06/11 12:40:37;;;;;;;10.45;1.95;;;24.80;70.30;;;;;;5092880;28;20388;-77
2022/06/11 12:43:29;;;;;;;11.45;2.25;;;25.10;73.40;;;;;;5093676;28;20055;-77
2022/06/11 12:46:22;;;;;;;8.75;1.65;;;25.40;72.40;;;;;;5094058;28;20056;-77
2022/06/11 12:48:51;;;;;;;11.27;1.92;;;25.50;66.80;;;;;;5093391;28;20119;-77
2022/06/11 12:51:44;;;;;;;10.73;2.03;;;25.40;66.40;;;;;;5093803;28;20162;-76
2022/06/11 12:54:24;;;;;;;15.15;2.42;;;25.40;67.40;;;;;;5093655;28;20032;-77
2022/06/11 12:57:08;;;;;;;14.80;1.80;;;25.40;67.70;;;;;;5093831;28;20031;-77
2022/06/11 12:59:51;;;;;;;15.32;2.40;;;25.40;68.10;;;;;;5093572;28;20020;-76
2022/06/11 13:02:25;;;;;;;12.30;2.30;;;25.40;68.00;;;;;;5093448;28;20024;-77
2022/06/11 13:04:57;;;;;;;11.27;2.00;;;25.40;67.90;;;;;;5093654;28;20028;-76